Time;durP1;ratioP1;P1;durP2;ratioP2;P2;SDS_P1;SDS_P2;PMS_P1;PMS_P2;Temp;Humidity;BMP_temperature;BMP_pressure;BME280_temperature;BME280_humidity;BME280_pressure;Samples;Min_cycle;Max_cycle;Signal;HPM_P1;HPM_P2
2022/04/24 00:01:57;;;;;;;17.45;11.45;;;9.40;99.90;;;;;;5085613;28;20031;-72
2022/04/24 00:04:24;;;;;;;20.02;12.15;;;9.30;99.90;;;;;;5084304;28;20440;-73
2022/04/24 00:06:51;;;;;;;20.73;12.13;;;9.30;99.90;;;;;;5085170;28;20043;-72
2022/04/24 00:09:16;;;;;;;15.60;10.90;;;9.30;99.90;;;;;;5070434;28;20039;-72
2022/04/24 00:11:42;;;;;;;19.20;11.02;;;9.30;99.90;;;;;;5086508;28;20039;-70
2022/04/24 00:14:10;;;;;;;16.38;11.38;;;9.30;99.90;;;;;;5088227;28;20081;-71
2022/04/24 00:16:37;;;;;;;17.55;10.63;;;9.30;99.90;;;;;;5085650;28;20486;-72
2022/04/24 00:19:03;;;;;;;18.20;11.45;;;9.30;99.90;;;;;;5086077;28;20130;-75
2022/04/24 00:21:29;;;;;;;17.10;11.40;;;9.30;99.90;;;;;;5074742;28;20262;-69
2022/04/24 00:23:55;;;;;;;16.80;10.38;;;9.20;99.90;;;;;;5089008;28;20130;-71
2022/04/24 00:26:21;;;;;;;14.80;10.60;;;9.20;99.90;;;;;;5071398;28;20040;-76
2022/04/24 00:28:46;;;;;;;19.25;10.77;;;9.20;99.90;;;;;;5084579;28;20048;-71
2022/04/24 00:31:12;;;;;;;15.10;10.35;;;9.10;99.90;;;;;;5088525;28;20529;-70
2022/04/24 00:33:37;;;;;;;15.48;10.30;;;9.10;99.90;;;;;;5086761;28;20036;-73
2022/04/24 00:36:03;;;;;;;17.00;10.82;;;9.10;99.90;;;;;;5079025;28;20048;-72
2022/04/24 00:38:32;;;;;;;17.58;10.98;;;9.00;99.90;;;;;;5080089;28;20040;-76
2022/04/24 00:40:57;;;;;;;19.05;10.75;;;9.00;99.90;;;;;;5084209;28;20142;-72
2022/04/24 00:43:23;;;;;;;14.55;10.38;;;9.00;99.90;;;;;;5087521;28;20123;-73
2022/04/24 00:46:00;;;;;;;16.20;10.32;;;8.90;99.90;;;;;;5088741;28;20383;-75
2022/04/24 00:48:26;;;;;;;18.85;11.18;;;8.90;99.90;;;;;;5088442;28;20081;-72
2022/04/24 00:50:52;;;;;;;19.02;11.32;;;8.80;99.90;;;;;;5086601;28;20505;-74
2022/04/24 00:53:17;;;;;;;16.65;10.95;;;8.80;99.90;;;;;;5082472;28;20115;-72
2022/04/24 00:55:43;;;;;;;14.27;9.40;;;8.70;99.90;;;;;;5072085;28;20260;-73
2022/04/24 00:58:10;;;;;;;17.20;10.27;;;8.70;99.90;;;;;;5089327;28;20422;-73
2022/04/24 01:00:38;;;;;;;15.40;10.20;;;8.70;99.90;;;;;;5085405;28;20044;-71
2022/04/24 01:03:04;;;;;;;16.35;10.27;;;8.70;99.90;;;;;;5085520;28;20454;-72
2022/04/24 01:05:29;;;;;;;17.13;10.55;;;8.70;99.90;;;;;;5088639;28;20119;-73
2022/04/24 01:07:55;;;;;;;16.83;10.27;;;8.70;99.90;;;;;;5088819;28;20036;-72
2022/04/24 01:10:20;;;;;;;16.13;9.27;;;8.60;99.90;;;;;;5069399;28;20031;-73
2022/04/24 01:12:46;;;;;;;19.20;10.60;;;8.60;99.90;;;;;;5087782;28;20036;-73
2022/04/24 01:15:11;;;;;;;14.98;10.05;;;8.60;99.90;;;;;;5080024;28;20294;-70
2022/04/24 01:17:37;;;;;;;15.75;10.38;;;8.60;99.90;;;;;;5085994;28;20400;-74
2022/04/24 01:20:03;;;;;;;15.77;10.23;;;8.50;99.90;;;;;;5082030;28;20057;-71
2022/04/24 01:22:29;;;;;;;15.65;10.25;;;8.60;99.90;;;;;;5083974;28;20036;-75
2022/04/24 01:24:54;;;;;;;17.08;10.45;;;8.60;99.90;;;;;;5084814;28;20113;-72
2022/04/24 01:27:20;;;;;;;15.27;10.23;;;8.50;99.90;;;;;;5089500;28;20058;-75
2022/04/24 01:29:45;;;;;;;15.57;10.10;;;8.50;99.90;;;;;;5071759;28;20039;-72
2022/04/24 01:32:11;;;;;;;15.93;10.00;;;8.40;99.90;;;;;;5089578;28;20482;-71
2022/04/24 01:34:36;;;;;;;16.73;10.70;;;8.40;99.90;;;;;;5088036;28;20046;-71
2022/04/24 01:37:02;;;;;;;18.50;10.63;;;8.30;99.90;;;;;;5090374;28;20047;-75
2022/04/24 01:39:27;;;;;;;14.93;10.05;;;8.30;99.90;;;;;;5089120;28;20498;-71
2022/04/24 01:41:55;;;;;;;18.45;10.40;;;8.20;99.90;;;;;;5088354;28;20378;-70
2022/04/24 01:44:21;;;;;;;16.00;9.75;;;8.20;99.90;;;;;;5091140;28;20051;-71
2022/04/24 01:46:47;;;;;;;14.20;9.63;;;8.20;99.90;;;;;;5084771;28;20391;-73
2022/04/24 01:49:12;;;;;;;16.25;10.05;;;8.10;99.90;;;;;;5089830;28;20476;-76
2022/04/24 01:51:38;;;;;;;15.90;10.48;;;8.10;99.90;;;;;;5090496;28;20040;-73
2022/04/24 01:54:03;;;;;;;17.08;9.88;;;8.10;99.90;;;;;;5091961;28;20486;-73
2022/04/24 01:56:29;;;;;;;13.88;9.52;;;8.10;99.90;;;;;;5089801;28;20475;-73
2022/04/24 01:58:54;;;;;;;16.00;9.98;;;8.00;99.90;;;;;;5087638;28;20040;-72
2022/04/24 02:01:20;;;;;;;16.88;9.95;;;8.00;99.90;;;;;;5073373;28;20115;-72
2022/04/24 02:03:45;;;;;;;18.13;10.55;;;7.90;99.90;;;;;;5087436;28;20032;-71
2022/04/24 02:06:12;;;;;;;17.73;9.88;;;7.90;99.90;;;;;;5073784;28;20062;-69
2022/04/24 02:08:38;;;;;;;18.15;10.07;;;7.80;99.90;;;;;;5088948;28;20111;-72
2022/04/24 02:11:04;;;;;;;15.57;10.02;;;7.70;99.90;;;;;;5090823;28;20131;-72
2022/04/24 02:13:30;;;;;;;14.93;9.93;;;7.70;99.90;;;;;;5073642;28;20051;-72
2022/04/24 02:15:56;;;;;;;17.08;10.20;;;7.70;99.90;;;;;;5089862;28;20036;-74
2022/04/24 02:18:21;;;;;;;20.55;10.07;;;7.60;99.90;;;;;;5089556;28;20036;-72
2022/04/24 02:20:47;;;;;;;15.65;10.05;;;7.60;99.90;;;;;;5087858;28;20411;-71
2022/04/24 02:23:12;;;;;;;18.17;10.23;;;7.60;99.90;;;;;;5089754;28;20040;-72
2022/04/24 02:25:38;;;;;;;15.00;9.68;;;7.50;99.90;;;;;;5085474;28;20044;-71
2022/04/24 02:28:04;;;;;;;15.45;9.85;;;7.50;99.90;;;;;;5089170;28;20489;-71
2022/04/24 02:30:30;;;;;;;15.10;10.30;;;7.50;99.90;;;;;;5087507;28;20052;-74
2022/04/24 02:32:59;;;;;;;17.33;10.38;;;7.40;99.90;;;;;;5090368;28;20036;-72
2022/04/24 02:35:26;;;;;;;16.92;10.40;;;7.40;99.90;;;;;;5088840;28;20028;-71
2022/04/24 02:37:52;;;;;;;15.57;10.40;;;7.40;99.90;;;;;;5090218;28;20069;-73
2022/04/24 02:40:24;;;;;;;16.30;10.10;;;7.40;99.90;;;;;;5085426;28;20051;-71
2022/04/24 02:42:50;;;;;;;;;;;7.30;99.90;;;;;;5090109;28;20122;-71
2022/04/24 02:45:17;;;;;;;16.85;9.80;;;7.30;99.90;;;;;;5089971;28;19916;-70
2022/04/24 02:47:42;;;;;;;17.48;10.02;;;7.30;99.90;;;;;;5086725;28;20067;-70
2022/04/24 02:50:08;;;;;;;15.27;9.77;;;7.20;99.90;;;;;;5090409;28;20513;-70
2022/04/24 02:52:54;;;;;;;16.15;10.50;;;7.20;99.90;;;;;;5085608;28;20051;-71
2022/04/24 02:55:21;;;;;;;14.18;9.60;;;7.20;99.90;;;;;;5073971;28;20465;-72
2022/04/24 02:57:47;;;;;;;18.55;10.30;;;7.10;99.90;;;;;;5087669;28;20505;-71
2022/04/24 03:00:19;;;;;;;17.42;10.35;;;7.10;99.90;;;;;;5087988;28;20043;-72
2022/04/24 03:02:45;;;;;;;18.60;11.00;;;7.00;99.90;;;;;;5088519;28;20043;-73
2022/04/24 03:05:18;;;;;;;17.83;10.73;;;7.00;99.90;;;;;;5090152;28;20036;-73
2022/04/24 03:07:45;;;;;;;17.60;10.90;;;7.00;99.90;;;;;;5071419;28;20078;-72
2022/04/24 03:10:11;;;;;;;17.33;10.65;;;7.00;99.90;;;;;;5088365;28;20097;-70
2022/04/24 03:12:37;;;;;;;15.88;10.80;;;6.90;99.90;;;;;;5089276;28;20394;-70
2022/04/24 03:15:07;;;;;;;17.60;10.00;;;6.90;99.90;;;;;;5089405;28;20054;-73
2022/04/24 03:17:33;;;;;;;16.05;9.63;;;6.90;99.90;;;;;;5088274;28;20530;-72
2022/04/24 03:20:00;;;;;;;16.83;10.75;;;6.90;99.90;;;;;;5084888;28;20122;-71
2022/04/24 03:22:30;;;;;;;15.82;10.15;;;6.80;99.90;;;;;;5089575;28;20047;-71
2022/04/24 03:24:57;;;;;;;17.08;10.38;;;6.80;99.90;;;;;;5089160;28;20082;-70
2022/04/24 03:27:23;;;;;;;19.23;10.80;;;6.70;99.90;;;;;;5090131;28;20071;-71
2022/04/24 03:29:48;;;;;;;18.15;10.63;;;6.70;99.90;;;;;;5088034;28;20076;-71
2022/04/24 03:32:14;;;;;;;15.25;9.80;;;6.70;99.90;;;;;;5091078;28;20428;-72
2022/04/24 03:34:39;;;;;;;20.42;11.32;;;6.60;99.90;;;;;;5086874;28;20871;-72
2022/04/24 03:37:05;;;;;;;18.88;11.18;;;6.50;99.90;;;;;;5089115;28;20390;-70
2022/04/24 03:39:31;;;;;;;17.23;10.60;;;6.50;99.90;;;;;;5087677;28;20067;-71
2022/04/24 03:41:56;;;;;;;18.48;10.77;;;6.50;99.90;;;;;;5072423;28;20072;-71
2022/04/24 03:44:22;;;;;;;18.00;10.88;;;6.50;99.90;;;;;;5089841;28;20539;-73
2022/04/24 03:46:48;;;;;;;22.17;10.75;;;6.50;99.90;;;;;;5071934;28;20035;-74
2022/04/24 03:49:14;;;;;;;17.63;10.55;;;6.40;99.90;;;;;;5084655;28;20086;-73
2022/04/24 03:51:39;;;;;;;17.38;10.93;;;6.50;99.90;;;;;;5085824;28;20408;-71
2022/04/24 03:54:05;;;;;;;18.85;10.07;;;6.40;99.90;;;;;;5071337;28;20081;-76
2022/04/24 03:56:31;;;;;;;17.98;10.63;;;6.40;99.90;;;;;;5089109;28;20040;-72
2022/04/24 03:59:00;;;;;;;17.55;10.98;;;6.40;99.90;;;;;;5086720;28;20455;-75
2022/04/24 04:01:26;;;;;;;18.77;10.85;;;6.40;99.90;;;;;;5083579;28;20032;-70
2022/04/24 04:03:52;;;;;;;17.60;10.48;;;6.40;99.90;;;;;;5087579;28;20032;-73
2022/04/24 04:06:19;;;;;;;14.88;10.23;;;6.40;99.90;;;;;;5087400;28;20036;-75
2022/04/24 04:08:44;;;;;;;17.17;10.15;;;6.30;99.90;;;;;;5087508;28;20411;-72
2022/04/24 04:11:10;;;;;;;18.33;10.20;;;6.30;99.90;;;;;;5087246;28;20040;-72
2022/04/24 04:13:35;;;;;;;17.05;10.50;;;6.30;99.90;;;;;;5088255;28;20040;-73
2022/04/24 04:16:01;;;;;;;17.30;10.60;;;6.30;99.90;;;;;;5086708;28;20048;-73
2022/04/24 04:18:26;;;;;;;19.25;10.73;;;6.30;99.90;;;;;;5087167;28;20652;-75
2022/04/24 04:20:52;;;;;;;16.20;10.23;;;6.20;99.90;;;;;;5082826;28;20052;-72
2022/04/24 04:23:17;;;;;;;16.13;10.32;;;6.20;99.90;;;;;;5084282;28;20070;-75
2022/04/24 04:25:43;;;;;;;18.17;10.60;;;6.20;99.90;;;;;;5088161;28;20372;-72
2022/04/24 04:28:09;;;;;;;19.55;10.88;;;6.20;99.90;;;;;;5085754;28;20036;-75
2022/04/24 04:30:34;;;;;;;16.48;11.48;;;6.20;99.90;;;;;;5084950;28;20456;-73
2022/04/24 04:33:00;;;;;;;18.50;10.80;;;6.20;99.90;;;;;;5088682;28;20388;-70
2022/04/24 04:35:26;;;;;;;19.67;10.73;;;6.20;99.90;;;;;;5087647;28;20146;-75
2022/04/24 04:37:52;;;;;;;16.38;10.32;;;6.20;99.90;;;;;;5086533;28;20453;-75
2022/04/24 04:40:18;;;;;;;19.08;11.65;;;6.20;99.90;;;;;;5087241;28;20047;-73
2022/04/24 04:42:45;;;;;;;16.38;10.30;;;6.20;99.90;;;;;;5086961;28;20038;-72
2022/04/24 04:45:10;;;;;;;16.90;11.05;;;6.20;99.90;;;;;;5085153;28;20454;-78
2022/04/24 04:47:36;;;;;;;18.92;10.55;;;6.20;99.90;;;;;;5087820;28;20122;-72
2022/04/24 04:50:02;;;;;;;18.77;10.45;;;6.30;99.90;;;;;;5087964;28;20135;-74
2022/04/24 04:52:27;;;;;;;18.40;10.25;;;6.30;99.90;;;;;;5086818;28;20047;-73
2022/04/24 04:54:53;;;;;;;16.65;10.95;;;6.30;99.90;;;;;;5086192;28;20457;-77
2022/04/24 04:57:19;;;;;;;18.80;10.70;;;6.40;99.90;;;;;;5087760;28;20051;-74
2022/04/24 04:59:44;;;;;;;16.30;10.27;;;6.30;99.90;;;;;;5084822;28;20123;-76
2022/04/24 05:02:10;;;;;;;19.00;10.60;;;6.30;99.90;;;;;;5085871;28;20059;-77
2022/04/24 05:04:36;;;;;;;15.73;9.98;;;6.40;99.90;;;;;;5070480;28;20805;-72
2022/04/24 05:07:01;;;;;;;20.40;11.23;;;6.40;99.90;;;;;;5088111;28;20486;-75
2022/04/24 05:09:27;;;;;;;16.13;10.48;;;6.50;99.90;;;;;;5086836;28;20047;-77
2022/04/24 05:11:53;;;;;;;18.52;10.70;;;6.50;99.90;;;;;;5087440;28;20051;-78
2022/04/24 05:14:18;;;;;;;19.48;11.52;;;6.60;99.90;;;;;;5085372;28;20324;-73
2022/04/24 05:16:44;;;;;;;18.75;10.85;;;6.70;99.90;;;;;;5086459;28;20558;-72
2022/04/24 05:19:10;;;;;;;20.45;11.60;;;6.70;99.90;;;;;;5087110;28;20481;-72
2022/04/24 05:21:35;;;;;;;18.08;11.30;;;6.70;99.90;;;;;;5086092;28;20039;-74
2022/04/24 05:24:01;;;;;;;19.90;11.02;;;6.60;99.90;;;;;;5086931;28;20127;-72
2022/04/24 05:26:27;;;;;;;19.25;10.75;;;6.70;99.90;;;;;;5084876;28;20112;-72
2022/04/24 05:28:52;;;;;;;17.33;10.65;;;6.70;99.90;;;;;;5085357;28;20040;-71
2022/04/24 05:31:19;;;;;;;19.23;10.52;;;6.70;99.90;;;;;;5085940;28;20032;-74
2022/04/24 05:33:44;;;;;;;17.63;10.85;;;6.70;99.90;;;;;;5082451;28;20036;-70
2022/04/24 05:36:10;;;;;;;19.20;10.75;;;6.80;99.90;;;;;;5087696;28;20043;-74
2022/04/24 05:38:35;;;;;;;18.73;11.10;;;6.80;99.90;;;;;;5081965;28;20083;-72
2022/04/24 05:41:01;;;;;;;21.70;11.30;;;6.90;99.90;;;;;;5087706;28;20040;-73
2022/04/24 05:43:26;;;;;;;16.67;11.13;;;7.00;99.90;;;;;;5075271;28;20119;-76
2022/04/24 05:45:52;;;;;;;16.95;10.45;;;7.00;99.90;;;;;;5084825;28;20051;-77
2022/04/24 05:48:18;;;;;;;18.77;10.88;;;7.10;99.90;;;;;;5084073;28;20837;-74
2022/04/24 05:50:44;;;;;;;16.83;10.48;;;7.20;99.90;;;;;;5084819;28;20070;-73
2022/04/24 05:53:10;;;;;;;23.15;10.80;;;7.20;99.90;;;;;;5084811;28;20506;-73
2022/04/24 05:55:36;;;;;;;17.50;10.80;;;7.30;99.90;;;;;;5083860;28;20036;-75
2022/04/24 05:58:02;;;;;;;17.92;9.88;;;7.30;99.90;;;;;;5086428;28;20066;-75
2022/04/24 06:00:28;;;;;;;15.05;9.88;;;7.40;99.90;;;;;;5087044;28;20368;-70
2022/04/24 06:02:54;;;;;;;17.35;10.20;;;7.40;99.90;;;;;;5085471;28;20479;-73
2022/04/24 06:05:19;;;;;;;18.20;10.48;;;7.50;99.90;;;;;;5082651;28;20429;-69
2022/04/24 06:07:45;;;;;;;16.85;9.77;;;7.50;99.90;;;;;;5087819;28;20044;-70
2022/04/24 06:10:11;;;;;;;17.48;10.75;;;7.60;99.90;;;;;;5087233;28;20127;-74
2022/04/24 06:12:45;;;;;;;21.70;10.60;;;7.70;99.90;;;;;;5089240;28;20054;-74
2022/04/24 06:15:15;;;;;;;15.60;9.85;;;7.60;99.90;;;;;;5086407;28;20070;-73
2022/04/24 06:17:41;;;;;;;17.00;9.38;;;7.80;99.90;;;;;;5090115;28;20044;-72
2022/04/24 06:20:08;;;;;;;16.50;10.05;;;7.90;99.90;;;;;;5090598;28;20040;-71
2022/04/24 06:22:50;;;;;;;17.48;9.80;;;8.00;99.90;;;;;;5090063;28;20043;-71
2022/04/24 06:25:24;;;;;;;18.33;10.93;;;8.20;99.90;;;;;;5090845;28;20028;-70
2022/04/24 06:27:51;;;;;;;18.05;10.55;;;8.30;99.90;;;;;;5091161;28;20390;-70
2022/04/24 06:30:20;;;;;;;16.83;9.60;;;8.40;99.90;;;;;;5088702;28;20461;-76
2022/04/24 06:32:46;;;;;;;16.88;10.00;;;8.60;99.90;;;;;;5090975;28;20039;-71
2022/04/24 06:35:16;;;;;;;16.90;9.52;;;8.70;99.90;;;;;;5094595;28;20391;-72
2022/04/24 06:37:45;;;;;;;18.35;10.05;;;8.90;99.90;;;;;;5092495;28;20503;-71
2022/04/24 06:40:12;;;;;;;18.73;10.50;;;8.90;99.90;;;;;;5088761;28;20076;-74
2022/04/24 06:42:49;;;;;;;17.90;10.23;;;9.00;99.90;;;;;;5091880;28;20036;-77
2022/04/24 06:45:15;;;;;;;18.45;10.23;;;9.10;99.90;;;;;;5090368;28;20375;-78
2022/04/24 06:47:42;;;;;;;17.02;10.43;;;9.20;99.90;;;;;;5088837;28;20463;-73
2022/04/24 06:50:08;;;;;;;16.38;9.95;;;9.20;99.90;;;;;;5079641;28;20048;-74
2022/04/24 06:52:34;;;;;;;19.38;10.45;;;9.30;99.90;;;;;;5071345;28;20504;-72
2022/04/24 06:55:00;;;;;;;19.70;10.35;;;9.30;99.90;;;;;;5083627;28;20126;-76
2022/04/24 06:57:26;;;;;;;19.75;10.50;;;9.30;99.90;;;;;;5073499;28;20123;-77
2022/04/24 06:59:52;;;;;;;19.00;10.88;;;9.40;99.90;;;;;;5086231;28;20123;-72
2022/04/24 07:02:17;;;;;;;16.90;10.70;;;9.40;99.90;;;;;;5069317;28;20048;-74
2022/04/24 07:04:43;;;;;;;20.85;11.13;;;9.40;99.90;;;;;;5088590;28;20032;-71
2022/04/24 07:07:08;;;;;;;18.75;11.35;;;9.40;99.90;;;;;;5072909;28;20039;-74
2022/04/24 07:09:34;;;;;;;18.98;10.82;;;9.30;99.90;;;;;;5083867;28;20186;-77
2022/04/24 07:11:59;;;;;;;18.20;11.15;;;9.30;99.90;;;;;;5087735;28;20059;-75
2022/04/24 07:14:25;;;;;;;19.00;10.48;;;9.30;99.90;;;;;;5090618;28;20042;-76
2022/04/24 07:16:50;;;;;;;18.45;10.63;;;9.30;99.90;;;;;;5085451;28;20048;-76
2022/04/24 07:19:16;;;;;;;15.95;10.30;;;9.30;99.90;;;;;;5076092;28;20045;-72
2022/04/24 07:21:42;;;;;;;20.90;10.57;;;9.30;99.90;;;;;;5062696;28;20044;-74
2022/04/24 07:24:07;;;;;;;18.48;10.57;;;9.50;99.90;;;;;;5086607;28;20050;-74
2022/04/24 07:26:33;;;;;;;20.95;12.52;;;9.50;99.90;;;;;;5084575;28;20028;-74
2022/04/24 07:28:59;;;;;;;19.80;11.30;;;9.70;99.90;;;;;;5088608;28;20108;-72
2022/04/24 07:31:25;;;;;;;18.98;10.85;;;9.80;99.90;;;;;;5089834;28;20040;-74
2022/04/24 07:33:52;;;;;;;18.20;11.45;;;9.90;99.90;;;;;;5071150;28;20051;-72
2022/04/24 07:36:18;;;;;;;17.17;10.25;;;10.00;99.90;;;;;;5083058;28;20036;-74
2022/04/24 07:38:43;;;;;;;20.40;10.95;;;10.20;99.90;;;;;;5087849;28;20081;-69
2022/04/24 07:41:10;;;;;;;22.45;10.70;;;10.30;99.90;;;;;;5082721;28;20032;-75
2022/04/24 07:43:36;;;;;;;22.65;10.70;;;10.40;99.90;;;;;;5072151;28;20121;-75
2022/04/24 07:46:01;;;;;;;18.73;10.95;;;10.50;99.90;;;;;;5088264;28;20121;-72
2022/04/24 07:48:27;;;;;;;16.67;10.02;;;10.60;99.90;;;;;;5089768;28;20093;-71
2022/04/24 07:50:52;;;;;;;15.75;10.27;;;10.70;99.90;;;;;;5088004;28;20040;-72
2022/04/24 07:53:20;;;;;;;17.67;10.68;;;10.80;99.90;;;;;;5085488;28;20444;-71
2022/04/24 07:55:47;;;;;;;19.50;10.65;;;10.80;99.90;;;;;;5084574;28;20562;-72
2022/04/24 07:58:13;;;;;;;17.45;9.85;;;11.00;99.90;;;;;;5067774;28;20036;-77
2022/04/24 08:00:40;;;;;;;20.15;10.70;;;11.20;99.90;;;;;;5078118;28;20118;-76
2022/04/24 08:03:07;;;;;;;16.02;9.77;;;11.20;99.90;;;;;;5087885;28;20050;-74
2022/04/24 08:05:38;;;;;;;19.30;10.50;;;11.20;99.90;;;;;;5087664;28;20097;-71
2022/04/24 08:08:08;;;;;;;19.77;10.02;;;11.30;99.90;;;;;;5068826;28;20386;-71
2022/04/24 08:10:37;;;;;;;17.55;9.18;;;11.30;99.90;;;;;;5084624;28;20039;-75
2022/04/24 08:13:05;;;;;;;17.05;9.63;;;11.40;99.90;;;;;;5081977;28;20039;-73
2022/04/24 08:15:32;;;;;;;14.73;9.00;;;11.50;99.90;;;;;;5083934;28;20047;-72
2022/04/24 08:17:57;;;;;;;18.88;9.70;;;11.60;99.90;;;;;;5085357;28;20040;-77
2022/04/24 08:20:23;;;;;;;18.80;9.55;;;11.60;99.90;;;;;;5083388;28;20380;-72
2022/04/24 08:22:52;;;;;;;15.13;8.73;;;11.70;99.90;;;;;;5081656;28;20071;-76
2022/04/24 08:25:19;;;;;;;13.38;8.48;;;11.80;99.90;;;;;;5082510;28;20064;-74
2022/04/24 08:27:47;;;;;;;13.98;8.32;;;11.90;99.90;;;;;;5083861;28;20086;-75
2022/04/24 08:30:14;;;;;;;14.35;8.27;;;12.00;99.90;;;;;;5084629;28;20040;-70
2022/04/24 08:32:40;;;;;;;16.33;8.32;;;12.00;99.90;;;;;;5084004;28;20050;-72
2022/04/24 08:35:08;;;;;;;18.17;8.38;;;12.00;99.90;;;;;;5079699;28;20063;-76
2022/04/24 08:37:34;;;;;;;14.73;8.10;;;12.10;99.90;;;;;;5081833;28;20039;-76
2022/04/24 08:39:59;;;;;;;14.00;7.55;;;12.20;99.90;;;;;;5084669;28;20040;-73
2022/04/24 08:42:26;;;;;;;13.25;7.80;;;12.20;99.90;;;;;;5083435;28;20039;-74
2022/04/24 08:44:55;;;;;;;12.88;7.65;;;12.30;99.90;;;;;;5082503;28;20044;-74
2022/04/24 08:47:22;;;;;;;13.45;7.60;;;12.30;99.90;;;;;;5085804;28;20118;-71
2022/04/24 08:49:48;;;;;;;12.70;7.47;;;12.40;99.90;;;;;;5087990;28;20039;-77
2022/04/24 08:52:14;;;;;;;14.48;7.63;;;12.40;99.90;;;;;;5089621;28;20101;-74
2022/04/24 08:54:41;;;;;;;10.88;6.88;;;12.40;99.90;;;;;;5085585;28;20494;-71
2022/04/24 08:57:17;;;;;;;13.38;7.10;;;12.50;99.90;;;;;;5089561;28;20035;-74
2022/04/24 08:59:43;;;;;;;12.05;7.03;;;12.60;99.90;;;;;;5088344;28;20036;-72
2022/04/24 09:02:09;;;;;;;14.73;7.43;;;12.70;99.90;;;;;;5084739;28;20119;-71
2022/04/24 09:04:37;;;;;;;12.07;7.05;;;12.70;99.90;;;;;;5084928;28;20123;-70
2022/04/24 09:07:08;;;;;;;16.52;7.10;;;12.90;99.90;;;;;;5085237;28;20040;-70
2022/04/24 09:09:42;;;;;;;12.73;6.68;;;13.00;99.90;;;;;;5079778;28;20048;-74
2022/04/24 09:12:13;;;;;;;11.30;6.65;;;13.20;99.90;;;;;;5063918;28;20381;-73
2022/04/24 09:14:39;;;;;;;10.73;5.93;;;13.30;99.90;;;;;;5082490;28;20032;-74
2022/04/24 09:17:07;;;;;;;9.93;6.00;;;13.30;99.90;;;;;;5084357;28;20089;-71
2022/04/24 09:19:33;;;;;;;10.40;5.70;;;13.50;99.90;;;;;;5083851;28;20407;-73
2022/04/24 09:22:08;;;;;;;8.35;5.47;;;13.50;99.90;;;;;;5084915;28;20036;-70
2022/04/24 09:24:50;;;;;;;9.73;5.13;;;13.60;99.90;;;;;;5065705;28;20038;-70
2022/04/24 09:27:34;;;;;;;8.02;5.03;;;13.70;99.90;;;;;;5079231;28;20051;-72
2022/04/24 09:30:03;;;;;;;8.13;4.35;;;13.90;99.90;;;;;;5082135;28;20109;-73
2022/04/24 09:32:30;;;;;;;7.70;4.70;;;14.10;99.90;;;;;;5082983;28;20040;-76
2022/04/24 09:34:57;;;;;;;9.05;4.70;;;14.20;99.90;;;;;;5078665;28;20040;-75
2022/04/24 09:37:23;;;;;;;8.57;4.53;;;14.30;98.80;;;;;;5083466;28;20394;-72
2022/04/24 09:39:50;;;;;;;9.55;4.35;;;14.40;99.90;;;;;;5082471;28;20032;-73
2022/04/24 09:42:20;;;;;;;8.98;4.85;;;14.40;99.80;;;;;;5082611;28;20493;-73
2022/04/24 09:44:47;;;;;;;9.13;4.70;;;14.40;99.90;;;;;;5083541;28;20071;-73
2022/04/24 09:47:16;;;;;;;9.65;4.50;;;14.50;99.90;;;;;;5085541;28;20036;-75
2022/04/24 09:49:45;;;;;;;9.38;4.50;;;14.70;99.90;;;;;;5087460;28;20055;-73
2022/04/24 09:52:14;;;;;;;6.43;4.70;;;14.80;99.90;;;;;;5082565;28;20067;-71
2022/04/24 09:54:51;;;;;;;9.80;4.93;;;14.80;99.90;;;;;;5082241;28;21295;-72
2022/04/24 09:57:18;;;;;;;9.27;4.78;;;14.90;99.10;;;;;;5082799;28;20043;-75
2022/04/24 09:59:45;;;;;;;7.90;4.85;;;14.90;99.90;;;;;;5084166;28;20052;-78
2022/04/24 10:02:12;;;;;;;7.05;4.95;;;15.00;99.90;;;;;;5081629;28;20043;-77
2022/04/24 10:04:39;;;;;;;6.90;4.60;;;15.00;98.80;;;;;;5086270;28;20040;-75
2022/04/24 10:07:10;;;;;;;10.05;5.40;;;15.00;99.90;;;;;;5085863;28;20400;-77
2022/04/24 10:09:38;;;;;;;8.52;4.90;;;15.10;99.90;;;;;;5086444;28;20044;-75
2022/04/24 10:12:18;;;;;;;6.28;4.70;;;15.10;95.40;;;;;;5065989;28;20067;-72
2022/04/24 10:15:05;;;;;;;11.15;5.18;;;15.20;97.20;;;;;;5082539;28;20431;-74
2022/04/24 10:18:02;;;;;;;12.23;4.80;;;15.30;97.80;;;;;;5089251;28;20387;-79
2022/04/24 10:20:53;;;;;;;8.98;5.00;;;15.30;94.00;;;;;;5091593;28;20036;-75
2022/04/24 10:23:32;;;;;;;9.15;5.10;;;15.40;99.70;;;;;;5075157;28;20394;-74
2022/04/24 10:25:57;;;;;;;7.85;4.50;;;15.50;97.90;;;;;;5092185;28;20433;-75
2022/04/24 10:28:27;;;;;;;8.27;5.10;;;15.50;95.90;;;;;;5090466;28;20040;-73
2022/04/24 10:31:00;;;;;;;8.88;5.13;;;15.50;74.30;;;;;;5081271;28;20051;-76
2022/04/24 10:33:54;;;;;;;9.57;5.35;;;15.40;91.30;;;;;;5085613;28;20035;-80
2022/04/24 10:36:20;;;;;;;9.65;5.03;;;15.50;89.10;;;;;;5083008;28;20132;-74
2022/04/24 10:38:57;;;;;;;9.98;5.20;;;15.60;94.80;;;;;;5090488;28;20121;-75
2022/04/24 10:41:30;;;;;;;8.40;5.25;;;15.70;96.20;;;;;;5091570;28;20456;-73
2022/04/24 10:44:08;;;;;;;9.52;5.55;;;15.80;93.20;;;;;;5091367;28;20036;-71
2022/04/24 10:46:39;;;;;;;8.60;5.47;;;15.90;95.80;;;;;;5083330;28;20530;-73
2022/04/24 10:49:14;;;;;;;10.57;5.32;;;15.80;94.90;;;;;;5071774;28;20074;-76
2022/04/24 10:51:42;;;;;;;8.40;4.43;;;15.80;96.20;;;;;;5087262;28;20513;-80
2022/04/24 10:54:11;;;;;;;10.18;4.57;;;15.90;94.40;;;;;;5091862;28;20047;-78
2022/04/24 10:56:38;;;;;;;7.63;4.82;;;15.90;92.70;;;;;;5087620;28;20037;-76
2022/04/24 10:59:11;;;;;;;7.38;4.70;;;15.90;80.30;;;;;;5090088;28;20181;-69
2022/04/24 11:01:41;;;;;;;6.63;4.28;;;15.90;80.40;;;;;;5091006;28;20048;-70
2022/04/24 11:04:08;;;;;;;9.52;4.38;;;16.00;81.10;;;;;;5083335;28;20048;-80
2022/04/24 11:06:34;;;;;;;8.38;4.03;;;16.20;93.60;;;;;;5071182;28;20123;-73
2022/04/24 11:09:09;;;;;;;7.65;3.80;;;16.20;89.00;;;;;;5056447;28;20072;-79
2022/04/24 11:11:45;;;;;;;6.10;3.63;;;16.20;86.70;;;;;;5090882;28;20032;-78
2022/04/24 11:14:10;;;;;;;10.60;3.17;;;16.20;92.00;;;;;;5091811;28;20237;-76
2022/04/24 11:16:36;;;;;;;10.75;4.32;;;16.20;83.40;;;;;;5091031;28;20123;-77
2022/04/24 11:19:01;;;;;;;7.47;4.03;;;16.30;78.60;;;;;;5083789;28;20040;-75
2022/04/24 11:21:27;;;;;;;7.10;2.97;;;16.20;88.10;;;;;;5092042;28;20036;-76
2022/04/24 11:23:59;;;;;;;6.10;2.85;;;16.20;65.70;;;;;;5091420;28;20036;-73
2022/04/24 11:26:24;;;;;;;5.50;3.55;;;16.20;63.40;;;;;;5088517;28;20100;-79
2022/04/24 11:28:50;;;;;;;5.40;2.92;;;16.10;66.40;;;;;;5107796;28;20147;-72
2022/04/24 11:31:20;;;;;;;9.35;3.17;;;16.20;64.90;;;;;;5091045;28;20032;-74
2022/04/24 11:33:51;;;;;;;5.30;3.10;;;16.10;63.50;;;;;;5089460;28;20058;-77
2022/04/24 11:36:17;;;;;;;7.53;3.20;;;16.20;90.70;;;;;;5070646;28;20047;-80
2022/04/24 11:38:46;;;;;;;5.50;2.85;;;16.40;86.60;;;;;;5070098;28;20407;-80
2022/04/24 11:41:15;;;;;;;6.70;3.17;;;16.40;81.50;;;;;;5070792;28;20060;-80
2022/04/24 11:43:41;;;;;;;5.55;2.97;;;16.50;66.50;;;;;;5070446;28;20033;-77
2022/04/24 11:51:35;;;;;;;7.28;3.70;;;16.30;72.00;;;;;;5087572;28;20101;-77
2022/04/24 11:54:02;;;;;;;9.93;3.20;;;16.10;72.80;;;;;;5083274;28;20040;-74
2022/04/24 11:56:27;;;;;;;8.05;3.65;;;16.00;62.10;;;;;;5078473;28;20035;-71
2022/04/24 11:59:14;;;;;;;6.13;3.30;;;15.90;68.80;;;;;;5089180;28;20040;-76
2022/04/24 12:01:39;;;;;;;5.32;3.30;;;16.10;65.80;;;;;;5090280;28;20051;-77
2022/04/24 12:04:05;;;;;;;6.03;3.22;;;16.20;88.80;;;;;;5089873;28;20036;-79
2022/04/24 12:06:32;;;;;;;7.40;3.40;;;16.40;81.80;;;;;;5089254;28;20028;-78
2022/04/24 12:09:06;;;;;;;5.85;3.50;;;16.60;89.90;;;;;;5090259;28;20123;-74
2022/04/24 12:11:32;;;;;;;8.52;3.70;;;16.70;71.40;;;;;;5089883;28;20437;-79
2022/04/24 12:14:08;;;;;;;4.45;3.22;;;16.80;78.40;;;;;;5088080;28;20375;-71
2022/04/24 12:16:34;;;;;;;4.57;3.20;;;17.00;76.30;;;;;;5082958;28;20032;-78
2022/04/24 12:19:00;;;;;;;5.43;3.20;;;17.10;65.40;;;;;;5075494;28;20065;-75
2022/04/24 12:21:27;;;;;;;6.25;3.25;;;17.00;63.70;;;;;;5086649;28;20093;-75
2022/04/24 12:23:55;;;;;;;6.80;3.83;;;16.70;61.70;;;;;;5084032;28;20582;-74
2022/04/24 12:26:21;;;;;;;7.47;3.67;;;16.80;79.80;;;;;;5089882;28;20505;-79
2022/04/24 12:28:48;;;;;;;7.60;3.42;;;17.00;85.70;;;;;;5078804;28;20036;-78
2022/04/24 12:31:27;;;;;;;4.82;3.20;;;17.00;64.80;;;;;;5076013;28;20115;-77
2022/04/24 12:33:55;;;;;;;5.55;3.35;;;16.80;63.90;;;;;;5089383;28;21167;-71
2022/04/24 12:36:22;;;;;;;4.75;2.95;;;16.60;61.30;;;;;;5086772;28;20388;-78
2022/04/24 12:39:06;;;;;;;5.35;3.30;;;16.30;73.60;;;;;;5091111;28;20054;-75
2022/04/24 12:41:36;;;;;;;5.25;3.05;;;16.30;72.80;;;;;;5089003;28;20093;-76
2022/04/24 12:44:06;;;;;;;5.60;3.00;;;16.20;74.50;;;;;;5088967;28;20039;-77
2022/04/24 12:46:34;;;;;;;5.93;3.33;;;16.20;85.30;;;;;;5071074;28;20028;-75
2022/04/24 12:49:00;;;;;;;11.00;3.60;;;16.20;75.50;;;;;;5088269;28;20028;-78